createdAt,value
2023-02-13T06:31:41.794Z,100.00
2023-02-13T06:34:08.815Z,100.00
2023-02-13T06:36:37.695Z,100.00
2023-02-13T06:39:05.061Z,100.00
2023-02-13T06:41:32.024Z,100.00
2023-02-13T06:43:58.929Z,100.00
2023-02-13T06:46:25.881Z,100.00
2023-02-13T06:48:52.965Z,100.00
2023-02-13T06:51:19.742Z,100.00
2023-02-13T06:53:46.825Z,100.00
2023-02-13T06:56:15.631Z,100.00
2023-02-13T06:58:42.559Z,100.00
2023-02-13T07:01:09.564Z,100.00
2023-02-13T07:03:36.471Z,100.00
2023-02-13T07:06:03.457Z,100.00
2023-02-13T07:08:31.032Z,99.36
2023-02-13T07:10:58.119Z,98.90
2023-02-13T07:13:25.279Z,99.29
2023-02-13T07:15:52.109Z,98.90
2023-02-13T07:18:19.150Z,98.28
2023-02-13T07:20:45.974Z,97.93
2023-02-13T07:23:12.901Z,97.78
2023-02-13T07:25:39.761Z,97.78
2023-02-13T07:28:07.544Z,97.50
2023-02-13T07:30:35.224Z,96.31
2023-02-13T07:48:40.908Z,96.85
2023-02-13T07:51:07.986Z,97.15
2023-02-13T07:53:35.624Z,96.57
2023-02-13T07:56:09.717Z,96.60
2023-02-13T07:58:37.901Z,96.12
2023-02-13T08:01:10.137Z,95.71
2023-02-13T08:03:37.455Z,94.40
2023-02-13T08:06:05.955Z,94.76
2023-02-13T08:08:33.640Z,94.37
2023-02-13T08:11:25.913Z,93.68
2023-02-13T08:13:52.761Z,92.55
2023-02-13T08:16:19.806Z,92.29
2023-02-13T08:18:46.627Z,92.15
2023-02-13T08:21:15.410Z,91.75
2023-02-13T08:23:42.362Z,92.47
2023-02-13T08:26:09.330Z,91.55
2023-02-13T08:28:37.347Z,92.19
2023-02-13T08:31:11.886Z,91.46
2023-02-13T08:33:39.988Z,91.13
2023-02-13T08:36:07.846Z,90.71
2023-02-13T08:38:34.950Z,90.67
2023-02-13T08:41:01.821Z,91.19
2023-02-13T08:43:28.742Z,90.96
2023-02-13T08:46:00.950Z,90.88
2023-02-13T08:48:28.185Z,91.16
2023-02-13T08:50:55.329Z,91.03
2023-02-13T08:53:22.308Z,90.92
2023-02-13T08:55:57.130Z,90.97
2023-02-13T08:58:24.723Z,90.96
2023-02-13T09:00:51.635Z,90.94
2023-02-13T09:03:19.086Z,90.16
2023-02-13T09:05:47.780Z,90.26
2023-02-13T09:08:16.652Z,89.55
2023-02-13T09:10:44.870Z,89.92
2023-02-13T09:13:12.417Z,90.22
2023-02-13T09:15:43.922Z,89.51
2023-02-13T09:18:10.744Z,89.94
2023-02-13T09:20:37.561Z,89.70
2023-02-13T09:23:04.473Z,89.66
2023-02-13T09:25:31.292Z,89.18
2023-02-13T09:27:59.918Z,88.23
2023-02-13T09:30:27.006Z,87.53
2023-02-13T09:32:55.248Z,87.80
2023-02-13T09:35:23.720Z,87.58
2023-02-13T09:37:50.592Z,87.61
2023-02-13T09:40:28.863Z,87.87
2023-02-13T09:43:07.646Z,88.71
2023-02-13T09:45:35.636Z,88.83
2023-02-13T09:48:02.822Z,87.51
2023-02-13T09:50:34.000Z,86.65
2023-02-13T09:53:04.439Z,86.10
2023-02-13T09:55:53.140Z,85.48
2023-02-13T09:58:38.610Z,84.15
2023-02-13T10:01:15.993Z,83.41
2023-02-13T10:03:56.284Z,83.25
2023-02-13T10:06:36.876Z,82.33
2023-02-13T10:09:36.066Z,82.35
2023-02-13T10:12:13.982Z,80.80
2023-02-13T10:15:21.676Z,79.03
2023-02-13T10:17:56.628Z,78.06
2023-02-13T10:20:36.211Z,76.18
2023-02-13T10:23:44.780Z,75.23
2023-02-13T10:26:27.305Z,74.10
2023-02-13T10:29:26.064Z,72.30
2023-02-13T10:31:56.021Z,70.96
2023-02-13T10:34:27.586Z,70.06
2023-02-13T10:36:55.341Z,69.27
2023-02-13T10:39:30.114Z,67.44
2023-02-13T10:42:20.501Z,68.47
2023-02-13T10:45:16.684Z,65.83
2023-02-13T10:48:13.419Z,64.19
2023-02-13T10:51:02.185Z,63.85
2023-02-13T10:53:44.001Z,64.69
2023-02-13T10:56:10.818Z,63.88
2023-02-13T10:59:23.741Z,63.40
2023-02-13T11:02:13.930Z,62.59
2023-02-13T11:04:44.692Z,62.41
2023-02-13T11:07:16.738Z,60.88
2023-02-13T11:09:48.726Z,60.71
2023-02-13T11:12:31.421Z,60.23
2023-02-13T11:15:04.532Z,59.95
2023-02-13T11:17:43.232Z,60.10
2023-02-13T11:20:34.228Z,58.58
2023-02-13T11:23:20.988Z,57.18
2023-02-13T11:26:22.848Z,55.84
2023-02-13T11:28:53.174Z,55.06
2023-02-13T11:31:23.301Z,51.76
2023-02-13T11:33:50.808Z,52.32
2023-02-13T11:36:25.860Z,49.96
2023-02-13T11:39:01.897Z,49.02
2023-02-13T11:41:32.842Z,48.66
2023-02-13T11:44:04.368Z,47.32
2023-02-13T11:46:48.023Z,47.74
2023-02-13T11:49:21.929Z,46.23
2023-02-13T11:51:52.164Z,45.89
2023-02-13T11:54:25.041Z,46.35
2023-02-13T11:57:05.085Z,45.64
2023-02-13T11:59:40.286Z,46.00
2023-02-13T12:02:19.500Z,46.48
2023-02-13T12:04:48.538Z,45.47
2023-02-13T12:07:17.662Z,45.35
2023-02-13T12:09:47.463Z,45.05
2023-02-13T12:12:30.511Z,43.78
2023-02-13T12:14:58.599Z,43.34
2023-02-13T12:17:32.410Z,42.92
2023-02-13T12:20:00.656Z,43.00
2023-02-13T12:22:33.861Z,42.63
2023-02-13T12:25:27.234Z,42.98
2023-02-13T12:28:14.076Z,42.74
2023-02-13T12:30:43.807Z,43.11
2023-02-13T12:33:40.023Z,42.70
2023-02-13T12:36:30.309Z,42.79
2023-02-13T12:39:36.100Z,42.47
2023-02-13T12:42:33.800Z,42.30
2023-02-13T12:45:18.416Z,41.40
2023-02-13T12:48:16.194Z,40.79
2023-02-13T12:51:00.625Z,41.29
2023-02-13T12:53:42.444Z,40.63
2023-02-13T12:56:32.055Z,40.45
2023-02-13T12:59:41.349Z,40.48
2023-02-13T13:02:23.254Z,40.73
2023-02-13T13:05:20.945Z,40.49
2023-02-13T13:07:47.723Z,40.67
2023-02-13T13:10:33.116Z,40.53
2023-02-13T13:13:15.233Z,39.94
2023-02-13T13:15:45.026Z,40.02
2023-02-13T13:19:03.688Z,39.45
2023-02-13T13:21:40.231Z,39.57
2023-02-13T13:24:39.613Z,39.26
2023-02-13T13:27:22.389Z,39.63
2023-02-13T13:29:58.785Z,39.78
2023-02-13T13:32:26.730Z,39.13
2023-02-13T13:34:54.108Z,39.38
2023-02-13T13:37:34.278Z,39.39
2023-02-13T13:40:04.624Z,38.83
2023-02-13T13:42:52.638Z,38.67
2023-02-13T13:45:27.925Z,38.53
2023-02-13T13:48:20.740Z,39.33
2023-02-13T13:50:48.467Z,39.90
2023-02-13T13:53:23.420Z,39.88
2023-02-13T13:55:50.252Z,40.30
2023-02-13T13:58:40.720Z,39.06
2023-02-13T14:01:25.837Z,38.66
2023-02-13T14:03:57.655Z,38.88
2023-02-13T14:06:27.678Z,39.19
2023-02-13T14:08:56.754Z,39.36
2023-02-13T14:11:37.658Z,39.31
2023-02-13T14:14:27.444Z,39.13
2023-02-13T14:17:02.388Z,46.72
2023-02-13T14:19:35.824Z,40.42
2023-02-13T14:22:22.574Z,39.67
2023-02-13T14:24:55.046Z,41.32
2023-02-13T14:27:24.931Z,39.84
2023-02-13T14:29:51.848Z,39.32
2023-02-13T14:32:27.088Z,39.10
2023-02-13T14:35:19.248Z,39.68
2023-02-13T14:38:23.873Z,39.64
2023-02-13T14:40:52.228Z,39.35
2023-02-13T14:43:33.042Z,39.23
2023-02-13T14:46:12.140Z,39.33
2023-02-13T14:48:51.328Z,39.49
2023-02-13T14:51:28.836Z,39.64
2023-02-13T14:54:01.718Z,39.27
2023-02-13T14:56:31.777Z,39.57
2023-02-13T14:59:10.522Z,40.42
2023-02-13T15:02:01.273Z,41.70
2023-02-13T15:04:46.578Z,43.02
2023-02-13T15:07:23.658Z,43.76
2023-02-13T15:09:56.206Z,44.98
2023-02-13T15:12:35.552Z,45.55
2023-02-13T15:15:17.733Z,46.17
2023-02-13T15:17:44.760Z,46.93
2023-02-13T15:20:14.605Z,47.13
2023-02-13T15:22:46.238Z,47.67
2023-02-13T15:25:29.832Z,48.47
2023-02-13T15:27:58.839Z,48.86
2023-02-13T15:30:31.925Z,49.54
2023-02-13T15:33:00.877Z,50.21
2023-02-13T15:35:31.328Z,50.64
2023-02-13T15:37:58.813Z,50.90
2023-02-13T15:40:33.680Z,51.20
2023-02-13T15:43:03.335Z,51.62
2023-02-13T15:45:30.881Z,51.95
2023-02-13T15:47:59.218Z,52.34
2023-02-13T15:50:29.057Z,53.02
2023-02-13T15:52:56.127Z,53.43
2023-02-13T15:55:28.850Z,53.84
2023-02-13T15:57:58.940Z,54.14
2023-02-13T16:00:29.505Z,54.50
2023-02-13T16:03:00.344Z,54.95
2023-02-13T16:05:39.978Z,55.34
2023-02-13T16:08:28.663Z,56.19
2023-02-13T16:11:17.680Z,56.59
2023-02-13T16:13:56.968Z,57.36
2023-02-13T16:16:31.807Z,57.59
2023-02-13T16:19:01.388Z,58.65
2023-02-13T16:21:31.560Z,59.39
2023-02-13T16:24:07.463Z,60.47
2023-02-13T16:26:39.339Z,60.99
2023-02-13T16:29:09.855Z,62.01
2023-02-13T16:31:36.820Z,62.45
2023-02-13T16:34:36.698Z,62.95
2023-02-13T16:37:03.602Z,63.39
2023-02-13T16:39:33.097Z,63.84
2023-02-13T16:42:00.785Z,64.15
2023-02-13T16:44:30.833Z,64.54
2023-02-13T16:47:05.989Z,64.99
2023-02-13T16:49:35.875Z,64.91
2023-02-13T16:52:12.628Z,65.12
2023-02-13T16:54:53.152Z,65.48
2023-02-13T16:57:20.547Z,65.56
2023-02-13T16:59:47.379Z,65.53
2023-02-13T17:02:32.718Z,65.43
2023-02-13T17:05:08.748Z,65.43
2023-02-13T17:07:39.979Z,65.51
2023-02-13T17:10:19.464Z,65.94
2023-02-13T17:12:47.151Z,66.10
2023-02-13T17:15:16.907Z,66.11
2023-02-13T17:17:44.032Z,66.03
2023-02-13T17:20:24.504Z,66.18
2023-02-13T17:22:54.380Z,66.40
2023-02-13T17:25:25.069Z,66.74
2023-02-13T17:27:54.930Z,67.12
2023-02-13T17:30:25.196Z,67.19
2023-02-13T17:33:07.534Z,67.57
2023-02-13T17:35:35.554Z,67.87
2023-02-13T17:38:07.050Z,67.95
2023-02-13T17:40:34.085Z,68.44
2023-02-13T17:43:01.236Z,68.60
2023-02-13T17:45:30.615Z,68.79
2023-02-13T17:47:58.105Z,68.93
2023-02-13T17:50:26.693Z,69.17
2023-02-13T17:52:53.976Z,69.23
2023-02-13T17:55:26.721Z,69.53
2023-02-13T17:57:56.669Z,69.56
2023-02-13T18:00:27.060Z,69.69
2023-02-13T18:02:54.430Z,69.59
2023-02-13T18:05:22.064Z,69.87
2023-02-13T18:07:49.236Z,69.63
2023-02-13T18:10:26.895Z,70.24
2023-02-13T18:12:56.845Z,70.17
2023-02-13T18:15:24.578Z,70.63
2023-02-13T18:17:51.542Z,70.55
2023-02-13T18:20:23.605Z,70.48
2023-02-13T18:22:50.834Z,70.53
2023-02-13T18:25:20.303Z,70.55
2023-02-13T18:27:47.963Z,70.95
2023-02-13T18:30:18.411Z,71.17
2023-02-13T18:32:45.921Z,71.20
2023-02-13T18:35:14.692Z,71.17
2023-02-13T18:37:41.546Z,71.41
2023-02-13T18:40:10.676Z,71.40
2023-02-13T18:42:39.069Z,71.26
2023-02-13T18:45:06.310Z,71.33
2023-02-13T18:47:33.183Z,71.39
2023-02-13T18:50:00.030Z,71.42
2023-02-13T18:52:28.075Z,71.70
2023-02-13T18:54:54.975Z,71.46
2023-02-13T18:57:22.440Z,71.66
2023-02-13T18:59:49.470Z,71.60
2023-02-13T19:02:16.400Z,71.72
2023-02-13T19:04:43.330Z,71.34
2023-02-13T19:07:10.205Z,70.97
2023-02-13T19:09:40.468Z,70.87
2023-02-13T19:12:08.159Z,70.61
2023-02-13T19:14:35.335Z,70.47
2023-02-13T19:17:03.701Z,70.28
2023-02-13T19:19:30.648Z,70.25
2023-02-13T19:22:00.874Z,69.99
2023-02-13T19:24:27.892Z,69.56
2023-02-13T19:26:56.005Z,69.40
2023-02-13T19:29:22.925Z,69.23
2023-02-13T19:31:49.806Z,69.12
2023-02-13T19:34:17.454Z,68.82
2023-02-13T19:36:44.627Z,68.46
2023-02-13T19:39:11.759Z,68.49
2023-02-13T19:41:40.878Z,68.08
2023-02-13T19:44:09.929Z,68.05
2023-02-13T19:46:38.366Z,67.88
2023-02-13T19:49:06.087Z,68.15
2023-02-13T19:51:34.601Z,68.17
2023-02-13T19:54:07.975Z,68.13
2023-02-13T19:56:37.692Z,68.36
2023-02-13T19:59:06.952Z,68.20
2023-02-13T20:01:33.964Z,68.14
2023-02-13T20:04:00.984Z,68.37
2023-02-13T20:06:35.937Z,67.68
2023-02-13T20:09:07.273Z,67.73
2023-02-13T20:11:34.436Z,67.75
2023-02-13T20:14:01.391Z,67.26
2023-02-13T20:16:33.122Z,66.87
2023-02-13T20:19:03.297Z,66.77
2023-02-13T20:21:30.394Z,66.37
2023-02-13T20:23:57.329Z,66.01
2023-02-13T20:26:24.566Z,65.35
2023-02-13T20:28:51.533Z,65.51
2023-02-13T20:31:21.120Z,65.33
2023-02-13T20:33:50.295Z,65.15
2023-02-13T20:36:23.008Z,64.92
2023-02-13T20:38:52.462Z,65.03
2023-02-13T20:41:23.342Z,65.09
2023-02-13T20:43:50.708Z,65.61
2023-02-13T20:46:18.584Z,65.89
2023-02-13T20:48:48.509Z,66.27
2023-02-13T20:51:16.922Z,66.21
2023-02-13T20:53:45.290Z,66.25
2023-02-13T20:56:21.261Z,66.45
2023-02-13T20:58:49.998Z,66.57
2023-02-13T21:01:22.764Z,66.70
2023-02-13T21:03:53.942Z,67.00
2023-02-13T21:06:33.150Z,67.19
2023-02-13T21:09:01.060Z,67.54
2023-02-13T21:11:29.559Z,67.04
2023-02-13T21:13:57.583Z,67.20
2023-02-13T21:16:27.137Z,67.02
2023-02-13T21:18:56.472Z,67.11
2023-02-13T21:21:25.480Z,67.42
2023-02-13T21:23:53.955Z,67.64
2023-02-13T21:26:21.679Z,67.65
2023-02-13T21:28:49.790Z,67.86
2023-02-13T21:31:20.044Z,68.08
2023-02-13T21:33:46.894Z,68.10
2023-02-13T21:36:13.739Z,68.66
2023-02-13T21:38:41.285Z,68.71
2023-02-13T21:41:11.586Z,69.13
2023-02-13T21:43:38.883Z,69.33
2023-02-13T21:46:26.942Z,69.58
2023-02-13T21:49:05.731Z,69.75
2023-02-13T21:51:34.831Z,70.01
2023-02-13T21:54:02.734Z,70.22
2023-02-13T21:56:32.399Z,70.83
2023-02-13T21:59:00.132Z,70.75
2023-02-13T22:01:33.484Z,71.16
2023-02-13T22:04:02.567Z,71.12
2023-02-13T22:06:31.652Z,71.17
2023-02-13T22:08:59.918Z,71.58
2023-02-13T22:11:27.604Z,71.51
2023-02-13T22:13:56.826Z,71.63
2023-02-13T22:16:24.448Z,71.70
2023-02-13T22:18:51.501Z,72.01
2023-02-13T22:21:21.065Z,72.01
2023-02-13T22:23:49.099Z,72.27
2023-02-13T22:26:20.785Z,72.09
2023-02-13T22:28:47.971Z,72.24
2023-02-13T22:31:16.163Z,72.59
2023-02-13T22:33:47.431Z,72.74
2023-02-13T22:36:18.366Z,73.08
2023-02-13T22:38:45.258Z,72.97
2023-02-13T22:41:16.536Z,72.96
2023-02-13T22:43:44.071Z,73.07
2023-02-13T22:46:14.651Z,73.24
2023-02-13T22:48:44.353Z,73.45
2023-02-13T22:51:12.857Z,73.95
2023-02-13T22:53:40.315Z,74.46
2023-02-13T22:56:08.743Z,74.59
2023-02-13T22:58:36.933Z,74.89
2023-02-13T23:01:11.880Z,74.89
2023-02-13T23:03:39.640Z,75.07
2023-02-13T23:06:09.001Z,75.43
2023-02-13T23:08:37.106Z,75.39
2023-02-13T23:11:24.830Z,75.65
2023-02-13T23:13:51.721Z,75.98
2023-02-13T23:16:18.642Z,75.81
2023-02-13T23:18:51.042Z,76.15
2023-02-13T23:21:18.626Z,75.93
2023-02-13T23:23:45.550Z,76.00
2023-02-13T23:26:12.574Z,76.13
2023-02-13T23:28:39.546Z,75.67
2023-02-13T23:31:06.472Z,75.80
2023-02-13T23:33:33.476Z,75.80
2023-02-13T23:36:00.397Z,75.67
2023-02-13T23:38:27.838Z,75.80
2023-02-13T23:40:54.751Z,75.58
2023-02-13T23:43:21.670Z,75.47
2023-02-13T23:45:48.798Z,74.83
2023-02-13T23:48:15.682Z,74.75
2023-02-13T23:50:42.630Z,74.77
2023-02-13T23:53:09.880Z,74.74
2023-02-13T23:55:36.861Z,75.15
2023-02-13T23:58:03.632Z,75.33
